Time;durP1;ratioP1;P1;durP2;ratioP2;P2;SDS_P1;SDS_P2;PMS_P1;PMS_P2;Temp;Humidity;BMP_temperature;BMP_pressure;BME280_temperature;BME280_humidity;BME280_pressure;Samples;Min_cycle;Max_cycle;Signal;HPM_P1;HPM_P2
2021/11/17 02:25:50;;;;;;;85.97;29.20;;;;;;;-10.35;97.10;102307.96;1722570;82;20999;-40
2021/11/17 02:28:37;;;;;;;88.75;28.12;;;;;;;-10.39;96.72;102311.42;1750141;82;20936;-41
2021/11/17 02:31:09;;;;;;;84.62;29.77;;;;;;;-10.43;96.51;102309.75;1749894;81;20964;-42
2021/11/17 02:33:59;;;;;;;105.87;32.65;;;;;;;-10.48;96.27;102309.69;1749946;81;21435;-42
2021/11/17 02:36:54;;;;;;;106.05;34.18;;;;;;;-10.56;96.06;102308.59;1749722;82;21142;-42
2021/11/17 02:39:45;;;;;;;96.12;31.52;;;;;;;-10.60;96.00;102306.88;1722170;82;23708;-41
2021/11/17 02:42:26;;;;;;;108.27;33.92;;;;;;;-10.65;95.99;102312.68;1749051;80;21659;-41
2021/11/17 02:45:23;;;;;;;102.42;33.70;;;;;;;-10.67;96.04;102308.28;1749803;81;20963;-40
2021/11/17 02:48:17;;;;;;;100.20;31.90;;;;;;;-10.66;96.21;102308.80;1750093;82;20908;-41
2021/11/17 02:51:23;;;;;;;90.35;30.90;;;;;;;-10.66;96.15;102312.16;1749153;82;21144;-41
2021/11/17 02:54:07;;;;;;;102.32;31.62;;;;;;;-10.70;96.02;102307.59;1750084;82;21545;-41
2021/11/17 02:56:54;;;;;;;97.65;29.98;;;;;;;-10.75;95.85;102307.14;1749255;82;20917;-42
2021/11/17 02:59:47;;;;;;;99.90;31.07;;;;;;;-10.81;95.76;102300.30;1750051;82;21022;-43
2021/11/17 03:02:37;;;;;;;83.90;28.80;;;;;;;-10.87;95.76;102297.20;1749892;82;21015;-40
2021/11/17 03:05:28;;;;;;;94.95;30.43;;;;;;;-10.90;95.80;102299.02;1750150;82;21094;-42
2021/11/17 03:08:16;;;;;;;94.25;28.87;;;;;;;-10.92;95.73;102290.87;1749656;82;20996;-42
2021/11/17 03:11:21;;;;;;;110.92;31.50;;;;;;;-10.98;95.65;102293.29;1750034;82;20889;-42
2021/11/17 03:13:59;;;;;;;79.50;27.30;;;;;;;-11.02;95.59;102291.58;1750151;82;20932;-41
2021/11/17 03:16:34;;;;;;;94.90;29.63;;;;;;;-11.08;95.61;102289.34;1750157;82;21543;-40
2021/11/17 03:19:25;;;;;;;116.37;31.05;;;;;;;-11.10;95.67;102290.81;1747953;82;21478;-41
2021/11/17 03:22:35;;;;;;;93.95;30.72;;;;;;;-11.09;95.74;102287.97;1749803;82;20909;-42
2021/11/17 03:25:25;;;;;;;79.27;28.47;;;;;;;-11.08;95.86;102287.23;1742714;82;21003;-41
2021/11/17 03:28:15;;;;;;;104.20;27.98;;;;;;;-11.07;95.91;102284.86;1749844;82;20925;-41
2021/11/17 03:31:30;;;;;;;99.45;28.15;;;;;;;-11.05;95.95;102287.53;1749848;82;20975;-41
2021/11/17 03:34:25;;;;;;;93.00;28.32;;;;;;;-11.02;96.01;102291.58;1749090;82;21280;-40
2021/11/17 03:37:03;;;;;;;73.40;26.20;;;;;;;-10.99;96.16;102289.02;1750208;82;21050;-41
2021/11/17 03:40:10;;;;;;;86.60;27.02;;;;;;;-10.96;96.14;102290.92;1721957;82;20988;-42
2021/11/17 03:43:07;;;;;;;83.92;26.00;;;;;;;-10.94;96.13;102288.20;1749985;82;20919;-40
2021/11/17 03:45:47;;;;;;;93.33;27.37;;;;;;;-10.89;96.24;102289.91;1749907;82;20881;-41
2021/11/17 03:48:43;;;;;;;80.72;25.80;;;;;;;-10.82;96.43;102284.77;1749744;82;23313;-41
2021/11/17 03:51:30;;;;;;;78.97;25.32;;;;;;;-10.76;96.46;102285.34;1748988;82;20956;-42
2021/11/17 03:54:22;;;;;;;85.80;27.20;;;;;;;-10.71;96.37;102283.30;1749894;82;20971;-41
2021/11/17 03:57:09;;;;;;;97.15;28.12;;;;;;;-10.74;96.10;102278.88;1749852;82;20988;-40
2021/11/17 03:59:56;;;;;;;80.30;29.05;;;;;;;-10.75;95.94;102278.74;1749829;82;21003;-41
2021/11/17 04:02:52;;;;;;;102.67;28.60;;;;;;;-10.75;95.93;102285.00;1748198;82;21316;-43
2021/11/17 04:05:42;;;;;;;86.47;27.67;;;;;;;-10.75;96.00;102279.61;1749075;82;20968;-40
2021/11/17 04:08:17;;;;;;;90.38;25.45;;;;;;;-10.71;96.11;102273.29;1712690;82;20971;-41
2021/11/17 04:10:58;;;;;;;78.92;25.08;;;;;;;-10.67;96.07;102273.23;1750047;82;20940;-42
2021/11/17 04:14:03;;;;;;;96.55;28.23;;;;;;;-10.64;95.99;102277.28;1748980;82;21374;-42
2021/11/17 04:16:44;;;;;;;84.92;25.92;;;;;;;-10.59;96.04;102276.09;1694833;84;21807;-42
2021/11/17 04:19:25;;;;;;;92.10;29.45;;;;;;;-10.52;96.05;102277.19;1745188;82;20916;-41
2021/11/17 04:22:24;;;;;;;96.12;28.42;;;;;;;-10.48;95.96;102271.77;1749969;82;20936;-40
2021/11/17 04:25:04;;;;;;;96.75;29.23;;;;;;;-10.44;95.93;102267.56;1749737;82;21045;-41
2021/11/17 04:27:42;;;;;;;94.77;28.20;;;;;;;-10.37;95.96;102262.72;1750229;82;20928;-41
2021/11/17 04:30:20;;;;;;;92.78;28.90;;;;;;;-10.30;96.06;102261.33;1737343;81;21106;-42
2021/11/17 04:32:55;;;;;;;93.95;26.95;;;;;;;-10.21;96.13;102260.07;1749540;82;21023;-42
2021/11/17 04:36:08;;;;;;;95.03;29.02;;;;;;;-10.15;96.14;102261.90;1749964;82;21001;-42
2021/11/17 04:39:23;;;;;;;95.80;28.87;;;;;;;-10.07;96.14;102260.13;1748856;82;21022;-42
2021/11/17 04:42:14;;;;;;;128.45;36.38;;;;;;;-9.99;96.14;102259.56;1749881;82;20945;-41
2021/11/17 04:48:03;;;;;;;122.45;39.35;;;;;;;-9.85;96.19;102260.85;1816087;79;23195;-41
2021/11/17 04:50:58;;;;;;;118.93;35.92;;;;;;;-9.86;96.17;102259.98;1723609;82;21327;-42
2021/11/17 04:53:50;;;;;;;94.28;31.40;;;;;;;-9.80;96.17;102264.70;1750287;82;21067;-42
2021/11/17 04:56:34;;;;;;;105.35;31.35;;;;;;;-9.75;96.28;102262.59;1719940;82;20932;-41
2021/11/17 04:59:30;;;;;;;105.90;29.92;;;;;;;-9.71;96.23;102264.67;1749785;82;20933;-41
2021/11/17 05:02:15;;;;;;;;;;;;;;;-9.68;96.25;102263.70;1751416;82;21509;-42
2021/11/17 05:05:16;;;;;;;94.37;28.50;;;;;;;-9.63;96.37;102252.82;1749185;82;20106;-42
2021/11/17 05:07:48;;;;;;;105.32;30.82;;;;;;;-9.59;96.52;102254.50;1749781;81;21702;-41
2021/11/17 05:10:39;;;;;;;101.40;30.37;;;;;;;-9.53;96.60;102259.21;1749554;81;20968;-40
2021/11/17 05:13:32;;;;;;;88.72;29.70;;;;;;;-9.48;96.71;102258.36;1749925;81;20857;-41
2021/11/17 05:16:33;;;;;;;97.57;30.35;;;;;;;-9.42;96.75;102260.20;1713958;83;20972;-42
2021/11/17 05:19:27;;;;;;;106.52;29.20;;;;;;;-9.37;96.86;102258.98;1681316;83;20968;-42
2021/11/17 05:22:32;;;;;;;94.15;28.77;;;;;;;-9.28;97.04;102257.69;1741326;82;23277;-42
2021/11/17 05:25:10;;;;;;;79.05;28.15;;;;;;;-9.22;97.04;102263.27;1749906;82;20905;-42
2021/11/17 05:27:45;;;;;;;92.30;28.92;;;;;;;-9.20;96.84;102265.92;1749631;82;21592;-46
2021/11/17 05:30:51;;;;;;;89.07;29.18;;;;;;;-9.21;96.68;102266.67;1749992;81;21415;-42
2021/11/17 05:33:37;;;;;;;79.15;27.20;;;;;;;-9.24;96.65;102269.38;1718554;82;21294;-42
2021/11/17 05:36:27;;;;;;;79.05;27.67;;;;;;;-9.27;96.52;102266.59;1749161;82;21199;-41
2021/11/17 05:39:38;;;;;;;95.15;28.77;;;;;;;-9.32;96.33;102265.69;1749107;82;20885;-40
2021/11/17 05:42:21;;;;;;;87.25;28.10;;;;;;;-9.38;96.34;102268.13;1748457;82;20853;-42
2021/11/17 05:45:01;;;;;;;77.92;29.50;;;;;;;-9.37;96.56;102274.04;1748515;82;20995;-41
2021/11/17 05:47:55;;;;;;;91.85;28.47;;;;;;;-9.36;96.61;102278.31;1749165;81;21565;-41
2021/11/17 05:50:33;;;;;;;90.60;29.10;;;;;;;-9.37;96.65;102272.78;1688708;82;21167;-42
2021/11/17 05:53:22;;;;;;;94.22;30.45;;;;;;;-9.35;96.68;102267.53;1750661;82;20924;-42
2021/11/17 05:56:06;;;;;;;92.55;30.85;;;;;;;-9.33;96.79;102268.95;1750493;82;20937;-40
2021/11/17 05:58:55;;;;;;;90.67;30.30;;;;;;;-9.31;96.86;102264.56;1748719;82;20897;-40
2021/11/17 06:01:48;;;;;;;89.85;29.82;;;;;;;-9.26;96.98;102273.38;1749144;82;20975;-41
2021/11/17 06:04:14;;;;;;;77.80;28.90;;;;;;;-9.19;97.11;102264.80;1749936;82;21839;-41
2021/11/17 06:06:40;;;;;;;80.72;29.00;;;;;;;-9.10;97.36;102268.13;1749945;82;20979;-42
2021/11/17 06:09:06;;;;;;;94.00;28.73;;;;;;;-8.99;97.57;102269.09;1749903;82;21761;-41
2021/11/17 06:11:42;;;;;;;114.28;34.92;;;;;;;-8.89;97.71;102276.22;1750012;82;21011;-41
2021/11/17 06:14:14;;;;;;;99.28;34.03;;;;;;;-8.79;97.85;102271.65;1749993;82;21042;-41
2021/11/17 06:16:43;;;;;;;103.85;34.18;;;;;;;-8.66;98.05;102270.72;1749995;82;22258;-41
2021/11/17 06:19:10;;;;;;;103.83;42.40;;;;;;;-8.51;98.29;102269.94;1749770;82;20849;-41
2021/11/17 06:21:39;;;;;;;88.65;29.87;;;;;;;-8.37;98.40;102271.11;1749803;82;20960;-41
2021/11/17 06:24:08;;;;;;;104.60;32.10;;;;;;;-8.24;98.47;102257.98;1749874;82;20944;-41
2021/11/17 06:26:38;;;;;;;100.40;30.43;;;;;;;-8.11;98.45;102265.86;1749803;82;20933;-41
2021/11/17 06:29:08;;;;;;;99.75;30.10;;;;;;;-8.00;98.40;102257.09;1749780;82;21157;-42
2021/11/17 06:31:36;;;;;;;119.35;30.82;;;;;;;-7.88;98.44;102259.41;1722961;82;20869;-42
2021/11/17 06:34:29;;;;;;;107.17;30.45;;;;;;;-7.74;98.62;102254.30;1749999;81;21539;-42
2021/11/17 06:36:59;;;;;;;106.27;30.77;;;;;;;-7.54;98.93;102253.85;1750151;82;21466;-41
2021/11/17 06:39:25;;;;;;;103.72;32.28;;;;;;;-7.29;99.30;102250.47;1749813;82;21036;-41
2021/11/17 06:41:52;;;;;;;105.85;31.62;;;;;;;-7.05;99.47;102253.25;1749893;81;22091;-42
2021/11/17 06:44:19;;;;;;;98.10;31.07;;;;;;;-6.83;99.58;102248.72;1749629;82;20873;-42
2021/11/17 06:46:45;;;;;;;90.40;30.12;;;;;;;-6.59;99.80;102242.64;1744337;81;20981;-41
2021/11/17 06:49:13;;;;;;;88.45;30.27;;;;;;;-6.38;99.87;102239.31;1735699;82;21008;-40
2021/11/17 06:51:40;;;;;;;74.67;26.17;;;;;;;-6.16;99.92;102235.96;1735987;82;20992;-42
2021/11/17 06:54:06;;;;;;;61.98;24.57;;;;;;;-5.95;99.98;102237.07;1714878;82;21057;-42
2021/11/17 06:56:33;;;;;;;73.67;24.77;;;;;;;-5.75;99.93;102232.33;1735830;82;20925;-42
2021/11/17 06:58:59;;;;;;;59.15;23.87;;;;;;;-5.60;99.80;102228.83;1736064;82;20961;-42
2021/11/17 07:01:25;;;;;;;54.23;20.52;;;;;;;-5.42;99.91;102228.06;1735816;82;21016;-42
2021/11/17 07:03:52;;;;;;;62.62;23.07;;;;;;;-5.21;100.00;102229.19;1715295;82;21039;-42
2021/11/17 07:06:18;;;;;;;44.73;21.02;;;;;;;-5.01;100.00;102232.31;1735876;82;21152;-42
2021/11/17 07:08:45;;;;;;;45.63;21.35;;;;;;;-4.87;99.83;102226.60;1735770;82;20921;-42
2021/11/17 07:11:12;;;;;;;52.03;22.77;;;;;;;-4.77;99.65;102217.68;1735875;82;20954;-42
2021/11/17 07:13:40;;;;;;;49.48;23.12;;;;;;;-4.67;99.58;102217.96;1735851;82;21478;-42
2021/11/17 07:16:06;;;;;;;55.70;23.10;;;;;;;-4.54;99.65;102225.15;1736151;82;21395;-42
2021/11/17 07:18:34;;;;;;;67.17;25.23;;;;;;;-4.42;99.70;102215.92;1736257;82;21773;-42
2021/11/17 07:21:03;;;;;;;47.83;21.42;;;;;;;-4.30;99.70;102216.28;1735771;82;21006;-41
2021/11/17 07:23:31;;;;;;;52.20;22.90;;;;;;;-4.18;99.75;102220.92;1739437;82;21419;-41
2021/11/17 07:25:58;;;;;;;49.27;24.32;;;;;;;-4.07;99.72;102223.84;1735916;81;21016;-41
2021/11/17 07:28:24;;;;;;;50.88;24.40;;;;;;;-3.94;99.86;102225.57;1736247;82;20858;-41
2021/11/17 07:30:51;;;;;;;54.42;21.17;;;;;;;-3.82;99.83;102222.11;1714804;82;21888;-41
2021/11/17 07:33:17;;;;;;;43.87;20.48;;;;;;;-3.74;99.73;102221.01;1735961;82;20933;-41
2021/11/17 07:35:47;;;;;;;47.23;19.55;;;;;;;-3.73;99.64;102221.50;1735982;82;21478;-42
2021/11/17 07:38:18;;;;;;;49.60;20.00;;;;;;;-3.67;99.63;102218.11;1735692;82;21399;-41
2021/11/17 07:40:44;;;;;;;40.08;19.37;;;;;;;-3.59;99.70;102216.11;1736024;82;20981;-42
2021/11/17 07:43:12;;;;;;;48.50;20.12;;;;;;;-3.54;99.70;102211.33;1735975;82;21754;-42
2021/11/17 07:45:39;;;;;;;38.85;20.72;;;;;;;-3.52;99.62;102212.34;1735901;82;20890;-42
2021/11/17 07:48:06;;;;;;;46.65;22.45;;;;;;;-3.49;99.78;102212.14;1742531;81;21027;-42
2021/11/17 07:50:34;;;;;;;44.18;21.30;;;;;;;-3.43;99.92;102207.88;1744049;82;20980;-42
2021/11/17 07:53:01;;;;;;;51.55;20.90;;;;;;;-3.40;99.93;102212.29;1743994;82;20921;-42
2021/11/17 07:55:28;;;;;;;31.33;18.30;;;;;;;-3.36;100.00;102201.58;1744073;82;21080;-43
2021/11/17 07:57:55;;;;;;;58.13;19.80;;;;;;;-3.28;100.00;102202.95;1714547;82;20901;-41
2021/11/17 08:00:26;;;;;;;52.53;18.25;;;;;;;-3.20;100.00;102203.06;1744066;82;21455;-42
2021/11/17 08:02:53;;;;;;;37.30;19.12;;;;;;;-3.10;100.00;102199.89;1744201;82;20990;-43
2021/11/17 08:05:22;;;;;;;40.15;18.17;;;;;;;-2.98;100.00;102202.34;1744006;82;20945;-43
2021/11/17 08:07:48;;;;;;;29.82;17.42;;;;;;;-2.85;100.00;102204.88;1714822;82;21790;-41
2021/11/17 08:10:25;;;;;;;39.90;17.45;;;;;;;-2.71;100.00;102204.50;1743977;81;20909;-42
2021/11/17 08:12:52;;;;;;;34.35;17.27;;;;;;;-2.61;100.00;102202.16;1713164;82;20866;-42
2021/11/17 08:15:18;;;;;;;41.02;17.23;;;;;;;-2.50;100.00;102201.58;1714602;82;20921;-42
2021/11/17 08:17:46;;;;;;;54.73;17.62;;;;;;;-2.41;100.00;102207.22;1743936;82;21499;-41
2021/11/17 08:20:16;;;;;;;51.13;19.62;;;;;;;-2.31;100.00;102209.57;1744044;81;21169;-43
2021/11/17 08:22:45;;;;;;;70.52;20.50;;;;;;;-2.28;100.00;102201.25;1743940;82;20964;-43
2021/11/17 08:25:12;;;;;;;53.73;19.57;;;;;;;-2.24;100.00;102204.87;1743933;82;20996;-42
2021/11/17 08:27:38;;;;;;;59.70;19.73;;;;;;;-2.18;100.00;102202.33;1744000;82;21482;-42
2021/11/17 08:30:09;;;;;;;78.30;19.27;;;;;;;-2.08;100.00;102199.97;1743936;82;20969;-41
2021/11/17 08:32:37;;;;;;;58.78;19.67;;;;;;;-1.93;100.00;102196.22;1714777;82;21794;-41
2021/11/17 08:35:05;;;;;;;65.90;21.05;;;;;;;-1.80;100.00;102195.67;1744399;82;20917;-42
2021/11/17 08:37:32;;;;;;;60.80;19.70;;;;;;;-1.66;100.00;102197.39;1743840;82;20952;-43
2021/11/17 08:40:02;;;;;;;98.50;21.02;;;;;;;-1.53;100.00;102193.91;1743957;82;20977;-42
2021/11/17 08:42:29;;;;;;;64.47;18.80;;;;;;;-1.38;100.00;102199.42;1714532;82;20972;-43
2021/11/17 08:44:55;;;;;;;47.38;18.52;;;;;;;-1.29;100.00;102194.88;1744345;82;21095;-42
2021/11/17 08:47:22;;;;;;;62.03;17.65;;;;;;;-1.18;99.77;102190.00;1740338;81;20874;-43
2021/11/17 08:49:50;;;;;;;60.67;18.12;;;;;;;-1.09;99.33;102188.38;1735840;82;21517;-43
2021/11/17 08:52:17;;;;;;;72.00;17.80;;;;;;;-0.99;98.99;102187.66;1714851;82;21095;-43
2021/11/17 08:54:44;;;;;;;55.98;16.30;;;;;;;-0.79;98.60;102189.63;1735815;81;20984;-43
2021/11/17 08:57:11;;;;;;;55.00;18.10;;;;;;;-0.55;98.20;102185.43;1735805;82;21162;-43
2021/11/17 08:59:38;;;;;;;48.33;16.82;;;;;;;-0.32;97.67;102185.81;1735640;82;20980;-43
2021/11/17 09:02:06;;;;;;;43.85;17.05;;;;;;;-0.12;96.20;102180.92;1735844;81;20987;-43
2021/11/17 09:04:32;;;;;;;42.27;16.10;;;;;;;0.10;95.53;102172.73;1715115;82;21560;-43
2021/11/17 09:06:59;;;;;;;26.37;12.10;;;;;;;0.37;94.81;102168.58;1735603;81;20898;-43
2021/11/17 09:09:26;;;;;;;24.40;10.50;;;;;;;0.63;91.22;102169.02;1735825;82;21092;-43
2021/11/17 09:11:52;;;;;;;34.73;12.63;;;;;;;0.88;88.89;102163.85;1735815;82;21464;-43
2021/11/17 09:14:19;;;;;;;31.12;11.18;;;;;;;1.09;87.37;102155.97;1735670;82;20969;-43
2021/11/17 09:16:46;;;;;;;28.70;11.80;;;;;;;1.30;83.88;102161.63;1714743;82;21000;-42
2021/11/17 09:19:12;;;;;;;26.05;11.57;;;;;;;1.49;81.15;102157.39;1735732;81;20940;-42
2021/11/17 09:21:41;;;;;;;60.85;15.23;;;;;;;1.67;79.75;102147.13;1735911;82;21098;-46
2021/11/17 09:24:08;;;;;;;53.70;12.35;;;;;;;1.82;77.37;102146.95;1735773;82;20901;-43
2021/11/17 09:26:37;;;;;;;42.80;13.08;;;;;;;1.98;76.98;102146.84;1736091;82;20897;-43
2021/11/17 09:29:04;;;;;;;29.95;13.03;;;;;;;2.17;75.78;102146.38;1735795;82;20980;-43
2021/11/17 09:31:32;;;;;;;32.60;12.28;;;;;;;2.37;72.97;102140.83;1735924;82;22178;-45
2021/11/17 09:33:59;;;;;;;37.53;11.50;;;;;;;2.58;72.20;102143.39;1735667;81;21360;-44
2021/11/17 09:36:28;;;;;;;26.85;10.88;;;;;;;2.88;66.19;102128.83;1735985;81;20913;-43
2021/11/17 09:38:55;;;;;;;21.50;10.50;;;;;;;2.88;66.19;102128.83;1736218;82;20945;-42
2021/11/17 09:41:34;;;;;;;29.12;10.90;;;;;;;2.97;65.57;102133.45;1735876;82;20929;-42
2021/11/17 09:44:05;;;;;;;40.55;11.68;;;;;;;3.06;65.90;102129.53;1736137;82;21575;-43
2021/11/17 09:46:32;;;;;;;29.67;10.82;;;;;;;3.05;64.23;102123.95;1735961;81;21765;-44
2021/11/17 09:49:04;;;;;;;25.50;9.88;;;;;;;3.15;63.58;102117.94;1728869;81;20979;-43
2021/11/17 09:51:36;;;;;;;21.12;10.00;;;;;;;3.28;62.42;102120.98;1757782;81;20991;-42
2021/11/17 09:54:30;;;;;;;26.57;9.58;;;;;;;3.41;61.10;102112.08;1754242;81;20923;-43
2021/11/17 09:57:01;;;;;;;27.45;10.35;;;;;;;3.56;61.22;102113.06;1729826;81;21418;-43
2021/11/17 09:59:42;;;;;;;22.17;9.80;;;;;;;3.77;60.48;102105.70;1757765;81;21186;-44
2021/11/17 10:02:25;;;;;;;26.23;9.43;;;;;;;3.63;59.47;102103.50;1757779;81;21462;-44
2021/11/17 10:05:02;;;;;;;18.62;8.70;;;;;;;3.54;60.08;102092.54;1757029;81;20967;-44
2021/11/17 10:13:56;;;;;;;29.40;8.53;;;;;;;4.02;58.39;102083.98;1757711;81;21179;-42
2021/11/17 10:16:24;;;;;;;17.95;7.80;;;;;;;4.10;57.53;102089.77;1757124;81;21015;-42
2021/11/17 10:19:23;;;;;;;15.60;6.87;;;;;;;4.13;56.79;102084.34;1757627;81;20947;-42
2021/11/17 10:22:05;;;;;;;21.30;7.95;;;;;;;4.25;55.55;102077.87;1729822;81;21486;-43
2021/11/17 10:24:49;;;;;;;21.62;7.53;;;;;;;4.40;54.80;102085.21;1751045;81;20888;-43
2021/11/17 10:27:25;;;;;;;19.05;7.25;;;;;;;4.52;54.62;102074.09;1750854;81;21236;-43
2021/11/17 10:30:18;;;;;;;28.92;8.63;;;;;;;4.78;54.18;102077.02;1757710;81;20979;-44
2021/11/17 10:33:02;;;;;;;16.90;8.40;;;;;;;4.78;54.18;102077.02;1729618;81;20960;-43
2021/11/17 10:35:34;;;;;;;25.97;9.60;;;;;;;4.88;54.59;102078.63;1729790;81;20984;-43
2021/11/17 10:38:06;;;;;;;25.92;9.63;;;;;;;4.73;51.49;102076.46;1757871;81;20920;-43
2021/11/17 10:40:44;;;;;;;30.52;9.48;;;;;;;4.57;51.75;102067.84;1757362;81;21162;-44
2021/11/17 10:43:24;;;;;;;27.90;9.40;;;;;;;4.36;52.49;102066.31;1756990;81;21034;-44
2021/11/17 10:46:08;;;;;;;28.17;10.30;;;;;;;4.36;52.49;102066.31;1729613;81;21006;-43
2021/11/17 10:48:43;;;;;;;31.73;9.10;;;;;;;4.40;52.89;102061.73;1742939;81;20941;-42
2021/11/17 10:51:27;;;;;;;26.93;9.15;;;;;;;4.57;51.51;102063.98;1712465;82;20842;-42
2021/11/17 10:53:56;;;;;;;30.62;8.38;;;;;;;4.43;51.58;102062.27;1714705;82;21050;-43
2021/11/17 10:56:25;;;;;;;24.45;9.03;;;;;;;4.43;51.58;102062.27;1735959;82;21482;-43
2021/11/17 10:58:57;;;;;;;21.40;8.28;;;;;;;4.34;52.07;102059.38;1735967;81;20914;-43
2021/11/17 11:01:29;;;;;;;21.30;7.33;;;;;;;4.35;51.58;102057.27;1735831;82;21529;-43
2021/11/17 11:04:00;;;;;;;19.37;7.70;;;;;;;4.42;50.58;102052.80;1736197;81;21043;-43
2021/11/17 11:06:40;;;;;;;12.60;6.78;;;;;;;4.21;51.42;102056.42;1714624;82;21051;-44
2021/11/17 11:09:27;;;;;;;19.48;8.58;;;;;;;4.28;51.44;102049.38;1735603;82;20898;-44
2021/11/17 11:11:54;;;;;;;16.57;7.97;;;;;;;4.41;50.87;102052.33;1735835;82;21011;-44
2021/11/17 11:14:26;;;;;;;19.55;8.15;;;;;;;4.36;51.10;102044.52;1735911;82;21592;-43
2021/11/17 11:16:58;;;;;;;21.27;8.80;;;;;;;4.45;51.24;102045.23;1735787;82;20972;-43
2021/11/17 11:19:27;;;;;;;15.35;7.85;;;;;;;4.45;51.24;102045.23;1711673;82;22368;-44
2021/11/17 11:22:02;;;;;;;20.95;9.18;;;;;;;4.59;50.31;102036.27;1735631;82;21515;-44
2021/11/17 11:24:39;;;;;;;27.30;9.97;;;;;;;4.59;50.31;102036.27;1736151;82;21458;-42
2021/11/17 11:27:17;;;;;;;22.73;10.18;;;;;;;4.42;50.10;102042.14;1736012;82;20945;-43
2021/11/17 11:29:50;;;;;;;19.75;8.60;;;;;;;4.23;51.07;102038.11;1736028;82;20885;-43
2021/11/17 11:32:31;;;;;;;17.92;8.13;;;;;;;4.22;50.25;102031.25;1735877;82;21146;-43
2021/11/17 11:35:09;;;;;;;21.97;9.85;;;;;;;4.21;51.11;102033.34;1736054;82;20925;-43
2021/11/17 11:37:42;;;;;;;18.42;8.60;;;;;;;4.28;49.66;102031.44;1735950;81;20905;-43
2021/11/17 11:40:23;;;;;;;25.35;8.58;;;;;;;3.97;50.58;102027.86;1735772;82;21039;-43
2021/11/17 11:43:17;;;;;;;27.82;8.80;;;;;;;3.87;51.07;102018.98;1715008;82;21496;-43
2021/11/17 11:45:47;;;;;;;18.85;8.78;;;;;;;3.91;51.43;102012.25;1735088;82;21156;-43
2021/11/17 11:48:28;;;;;;;29.48;9.68;;;;;;;3.91;51.43;102012.25;1721391;81;20941;-43
2021/11/17 11:51:35;;;;;;;20.68;9.05;;;;;;;3.86;50.95;102009.55;1757692;81;21427;-43
2021/11/17 11:54:22;;;;;;;16.87;7.85;;;;;;;3.83;50.64;102002.16;1757995;81;20944;-43
2021/11/17 11:56:54;;;;;;;21.05;8.85;;;;;;;3.74;50.11;102004.88;1756058;81;20896;-43
2021/11/17 11:59:26;;;;;;;21.42;9.78;;;;;;;3.50;50.83;102001.45;1753244;80;21127;-43
2021/11/17 12:02:14;;;;;;;18.52;9.20;;;;;;;3.50;50.83;102001.45;1757406;81;20994;-44
2021/11/17 12:04:45;;;;;;;21.97;8.93;;;;;;;3.53;51.46;102004.13;1729736;81;20933;-44
2021/11/17 12:07:24;;;;;;;21.55;9.30;;;;;;;3.45;51.85;102000.89;1756800;81;20932;-44
2021/11/17 12:10:05;;;;;;;19.92;8.78;;;;;;;3.49;52.01;101998.44;1757427;81;20975;-44
2021/11/17 12:12:36;;;;;;;22.48;9.30;;;;;;;3.53;51.91;102002.84;1744451;81;21946;-44
2021/11/17 12:15:33;;;;;;;23.22;9.60;;;;;;;3.51;51.86;101993.81;1757804;81;20877;-43
2021/11/17 12:18:18;;;;;;;25.50;10.08;;;;;;;3.45;51.68;101994.48;1757624;81;20888;-44
2021/11/17 12:21:02;;;;;;;31.48;10.25;;;;;;;3.43;52.26;101997.41;1757775;81;21490;-44
2021/11/17 12:23:33;;;;;;;27.32;10.32;;;;;;;3.39;52.31;101994.67;1754642;81;20983;-44
2021/11/17 12:26:08;;;;;;;26.70;10.50;;;;;;;3.25;52.56;101999.29;1757729;81;21078;-44
2021/11/17 12:28:48;;;;;;;21.50;9.90;;;;;;;3.12;53.13;101999.25;1726639;81;20947;-44
2021/11/17 12:31:22;;;;;;;23.62;10.48;;;;;;;3.04;53.16;102001.52;1755969;81;20973;-43
2021/11/17 12:33:57;;;;;;;24.45;10.53;;;;;;;2.95;52.74;101997.34;1729917;81;20983;-44
2021/11/17 12:36:29;;;;;;;26.37;10.18;;;;;;;2.82;53.10;101998.14;1752329;81;20901;-44
2021/11/17 12:39:16;;;;;;;24.65;10.75;;;;;;;2.75;53.87;101993.61;1757769;81;21170;-43
2021/11/17 12:41:43;;;;;;;28.10;12.07;;;;;;;2.70;54.83;101993.42;1757408;81;21053;-44
2021/11/17 12:44:23;;;;;;;31.93;11.55;;;;;;;2.64;55.88;101985.91;1757905;81;20971;-42
2021/11/17 12:47:11;;;;;;;22.93;12.07;;;;;;;2.56;56.66;101987.77;1753628;81;21446;-42
2021/11/17 12:49:53;;;;;;;28.20;12.65;;;;;;;2.41;57.80;101984.21;1728095;82;20837;-42
2021/11/17 12:52:43;;;;;;;25.95;12.20;;;;;;;2.41;57.80;101984.21;1749928;81;21137;-43
2021/11/17 12:55:16;;;;;;;24.37;12.63;;;;;;;2.37;58.48;101989.13;1749385;82;21043;-43
2021/11/17 12:57:57;;;;;;;23.65;13.15;;;;;;;2.29;58.80;101987.57;1721732;82;21400;-43
2021/11/17 13:00:38;;;;;;;39.80;14.87;;;;;;;2.13;59.54;101980.94;1749819;82;21007;-43
2021/11/17 13:03:08;;;;;;;39.67;13.13;;;;;;;2.13;59.54;101980.94;1748097;82;20889;-43
2021/11/17 13:05:40;;;;;;;28.77;13.13;;;;;;;2.10;59.70;101976.98;1749797;82;21135;-43
2021/11/17 13:08:11;;;;;;;29.25;14.28;;;;;;;2.04;60.00;101976.73;1749661;80;20869;-43
2021/11/17 13:10:47;;;;;;;31.40;15.15;;;;;;;1.95;60.29;101984.89;1749983;82;20897;-43
2021/11/17 13:13:50;;;;;;;42.80;14.40;;;;;;;1.86;60.57;101975.16;1724026;82;21011;-44
2021/11/17 13:16:39;;;;;;;26.00;13.60;;;;;;;1.76;60.92;101989.22;1750129;82;20880;-43
2021/11/17 13:19:32;;;;;;;24.57;13.00;;;;;;;1.63;61.39;101981.86;1725908;82;20991;-43
2021/11/17 13:22:07;;;;;;;30.35;12.82;;;;;;;1.50;61.67;101986.42;1749821;82;21012;-44
2021/11/17 13:24:39;;;;;;;28.80;13.50;;;;;;;1.38;61.96;101998.23;1748051;82;21189;-44
2021/11/17 13:27:11;;;;;;;31.17;13.48;;;;;;;1.29;62.25;101984.70;1750229;82;20916;-44
2021/11/17 13:30:01;;;;;;;27.20;13.30;;;;;;;1.20;62.50;101985.96;1750149;82;20845;-42
2021/11/17 13:32:39;;;;;;;29.30;12.90;;;;;;;1.09;62.80;101985.06;1748152;82;21086;-44
2021/11/17 13:35:34;;;;;;;38.70;14.28;;;;;;;0.99;63.14;101975.26;1750066;81;20929;-44
2021/11/17 13:38:22;;;;;;;31.40;13.48;;;;;;;0.91;63.45;101971.50;1750033;82;21538;-44
2021/11/17 13:40:57;;;;;;;32.28;14.13;;;;;;;0.81;63.70;101970.20;1750101;81;20928;-44
2021/11/17 13:43:25;;;;;;;29.77;14.25;;;;;;;0.69;63.95;101970.51;1750091;82;20940;-44
2021/11/17 13:45:55;;;;;;;31.85;14.28;;;;;;;0.59;64.31;101970.47;1750172;81;21735;-43
2021/11/17 13:48:27;;;;;;;38.30;15.38;;;;;;;0.48;64.74;101967.42;1747279;81;20925;-43
2021/11/17 13:50:55;;;;;;;38.83;14.75;;;;;;;0.37;65.05;101964.74;1714657;82;21534;-46
2021/11/17 13:53:21;;;;;;;31.48;13.70;;;;;;;0.22;65.60;101968.31;1710124;82;21004;-43
2021/11/17 14:08:14;;;;;;;27.07;13.08;;;;;;;-0.59;67.87;101968.16;1607530;89;20931;-43
2021/11/17 14:10:42;;;;;;;34.53;14.60;;;;;;;-0.84;68.83;101975.30;1648191;86;20960;-44
2021/11/17 14:13:10;;;;;;;38.88;13.93;;;;;;;-1.02;69.50;101974.80;1660462;86;20951;-43
2021/11/17 14:15:38;;;;;;;27.98;13.28;;;;;;;-1.14;69.81;101971.58;1662974;85;21366;-44
2021/11/17 14:18:07;;;;;;;39.42;14.20;;;;;;;-1.27;70.18;101974.73;1672543;85;20979;-43
2021/11/17 14:20:33;;;;;;;39.75;13.83;;;;;;;-1.39;70.75;101971.52;1695846;84;21565;-43
2021/11/17 14:23:00;;;;;;;32.55;13.83;;;;;;;-1.53;71.20;101965.30;1696190;84;21350;-43
2021/11/17 14:25:28;;;;;;;31.77;14.20;;;;;;;-1.64;71.63;101970.16;1696026;84;20948;-43
2021/11/17 14:28:02;;;;;;;31.95;14.33;;;;;;;-1.74;72.07;101967.52;1696310;84;21762;-42
2021/11/17 14:30:41;;;;;;;140.57;57.73;;;;;;;-1.82;72.50;101968.34;1665764;84;21055;-42
2021/11/17 14:33:09;;;;;;;133.72;63.13;;;;;;;-1.90;72.85;101962.83;1696234;84;20984;-43
2021/11/17 14:35:36;;;;;;;98.42;45.78;;;;;;;-2.03;73.11;101958.72;1665723;84;21071;-43
2021/11/17 14:38:03;;;;;;;45.43;18.30;;;;;;;-2.14;73.48;101967.39;1696185;84;21437;-43
2021/11/17 14:40:29;;;;;;;49.85;22.82;;;;;;;-2.27;73.87;101968.72;1695831;84;21102;-42
2021/11/17 14:42:56;;;;;;;64.17;31.27;;;;;;;-2.44;74.32;101957.18;1695810;84;20913;-43
2021/11/17 14:45:25;;;;;;;59.42;27.52;;;;;;;-2.56;74.88;101962.40;1666023;84;21087;-43